Terminal Aerodrome Forecast
Issued by NWS

Home | Current Version | Previous Version | Text Only | Print | Product List | Glossary On
Versions: 1 2 3 4 5 6 7 8 9 10 11 12 13 14 15 16
000
FTUS44 KSJT 050500
TAFJCT
TAF
KJCT 050520Z 0506/0606 15013G22KT P6SM BKN080
     FM050700 15013G21KT P6SM BKN024
     FM051000 16012G18KT P6SM BKN012
     FM051500 16015G23KT P6SM VCSH OVC015
     FM051900 15014G22KT P6SM VCSH BKN025=

USA.gov is the U.S. government's official web portal to all federal, state and local government web resources and services.